createdAt,value
2019-05-09T00:01:24.834Z,10.00
2019-05-09T00:03:54.446Z,9.99
2019-05-09T00:06:24.127Z,9.98
2019-05-09T00:08:53.433Z,10.01
2019-05-09T00:11:24.609Z,9.99
2019-05-09T00:13:53.971Z,10.06
2019-05-09T00:16:23.628Z,10.03
2019-05-09T00:18:54.144Z,9.93
2019-05-09T00:21:29.204Z,9.91
2019-05-09T00:23:58.126Z,9.88
2019-05-09T00:26:27.300Z,9.88
2019-05-09T00:29:15.517Z,9.94
2019-05-09T00:31:54.316Z,9.94
2019-05-09T00:34:36.367Z,9.97
2019-05-09T00:37:05.310Z,9.96
2019-05-09T00:39:34.308Z,9.87
2019-05-09T00:42:04.422Z,9.82
2019-05-09T00:44:54.344Z,9.87
2019-05-09T00:47:29.592Z,9.91
2019-05-09T00:50:00.330Z,9.90
2019-05-09T00:52:29.363Z,9.89
2019-05-09T00:54:58.271Z,9.92
2019-05-09T00:57:36.119Z,9.92
2019-05-09T01:00:24.098Z,9.92
2019-05-09T01:02:54.221Z,9.85
2019-05-09T01:05:23.944Z,9.90
2019-05-09T01:07:53.767Z,9.85
2019-05-09T01:10:23.738Z,9.79
2019-05-09T01:12:54.203Z,9.79
2019-05-09T01:15:24.083Z,9.85
2019-05-09T01:17:53.813Z,9.73
2019-05-09T01:20:24.164Z,9.79
2019-05-09T01:22:54.176Z,9.77
2019-05-09T01:25:43.492Z,9.65
2019-05-09T01:28:13.947Z,9.75
2019-05-09T01:30:43.827Z,9.53
2019-05-09T01:33:25.802Z,9.70
2019-05-09T01:35:54.695Z,9.67
2019-05-09T01:38:23.785Z,9.74
2019-05-09T01:40:53.394Z,9.65
2019-05-09T01:43:40.796Z,9.65
2019-05-09T01:46:09.879Z,9.65
2019-05-09T01:48:38.748Z,9.76
2019-05-09T01:51:07.719Z,9.65
2019-05-09T01:53:40.163Z,9.58
2019-05-09T01:56:09.338Z,9.59
2019-05-09T01:58:38.257Z,9.54
2019-05-09T02:01:08.979Z,9.56
2019-05-09T02:03:38.029Z,9.57
2019-05-09T02:06:30.056Z,9.62
2019-05-09T02:08:46.925Z,9.50
2019-05-09T02:11:15.991Z,9.54
2019-05-09T02:13:44.954Z,9.55
2019-05-09T02:16:33.654Z,9.56
2019-05-09T02:19:09.079Z,9.52
2019-05-09T02:21:38.124Z,9.51
2019-05-09T02:24:07.237Z,9.40
2019-05-09T02:26:56.431Z,9.42
2019-05-09T02:29:25.345Z,9.41
2019-05-09T02:31:54.811Z,9.36
2019-05-09T02:34:24.909Z,9.31
2019-05-09T02:36:54.142Z,9.28
2019-05-09T02:39:23.222Z,9.33
2019-05-09T02:42:04.807Z,9.29
2019-05-09T02:44:23.353Z,9.26
2019-05-09T02:47:21.609Z,9.27
2019-05-09T02:49:50.750Z,9.20
2019-05-09T02:52:20.073Z,9.21
2019-05-09T02:54:50.116Z,9.14
2019-05-09T02:57:19.209Z,9.05
2019-05-09T03:00:08.712Z,9.12
2019-05-09T03:03:01.493Z,9.15
2019-05-09T03:05:38.539Z,9.11
2019-05-09T03:08:09.012Z,9.10
2019-05-09T03:10:38.133Z,9.12
2019-05-09T03:13:09.096Z,9.12
2019-05-09T03:15:39.395Z,9.05
2019-05-09T03:18:09.119Z,8.96
2019-05-09T03:20:58.589Z,9.10
2019-05-09T03:23:28.725Z,9.01
2019-05-09T03:25:58.827Z,8.93
2019-05-09T03:28:43.909Z,8.97
2019-05-09T03:31:14.020Z,8.93
2019-05-09T03:33:42.837Z,8.88
2019-05-09T03:36:11.691Z,8.88
2019-05-09T03:38:41.381Z,8.78
2019-05-09T03:41:10.314Z,8.86
2019-05-09T03:43:39.196Z,8.77
2019-05-09T03:46:17.999Z,8.82
2019-05-09T03:48:49.251Z,8.79
2019-05-09T03:51:18.444Z,8.78
2019-05-09T03:53:48.401Z,8.79
2019-05-09T03:56:20.413Z,8.85
2019-05-09T03:58:49.324Z,8.83
2019-05-09T04:01:18.162Z,8.82
2019-05-09T04:03:48.117Z,8.87
2019-05-09T04:06:18.447Z,8.91
2019-05-09T04:08:48.191Z,8.85
2019-05-09T04:11:18.479Z,8.92
2019-05-09T04:13:53.647Z,8.89
2019-05-09T04:16:22.458Z,8.95
2019-05-09T04:18:51.730Z,8.98
2019-05-09T04:21:20.551Z,8.98
2019-05-09T04:23:49.391Z,9.10
2019-05-09T04:26:32.283Z,9.07
2019-05-09T04:29:01.282Z,9.08
2019-05-09T04:31:30.175Z,9.14
2019-05-09T04:33:59.187Z,9.25
2019-05-09T04:36:40.106Z,9.38
2019-05-09T04:39:12.748Z,9.53
2019-05-09T04:41:41.676Z,9.48
2019-05-09T04:44:19.265Z,9.57
2019-05-09T04:46:44.741Z,9.69
2019-05-09T04:49:13.791Z,9.78
2019-05-09T04:51:42.682Z,9.97
2019-05-09T04:54:11.644Z,9.97
2019-05-09T04:56:41.720Z,10.18
2019-05-09T04:59:10.555Z,10.33
2019-05-09T05:01:47.747Z,10.33
2019-05-09T05:04:18.041Z,10.56
2019-05-09T05:06:47.794Z,10.75
2019-05-09T05:09:20.489Z,10.83
2019-05-09T05:11:49.046Z,10.56
2019-05-09T05:14:23.922Z,10.78
2019-05-09T05:16:55.281Z,10.84
2019-05-09T05:19:30.966Z,10.87
2019-05-09T05:21:59.682Z,10.92
2019-05-09T05:24:39.427Z,11.16
2019-05-09T05:27:08.541Z,11.02
2019-05-09T05:29:40.725Z,10.81
2019-05-09T05:32:13.889Z,10.71
2019-05-09T05:35:01.966Z,10.81
2019-05-09T05:37:30.971Z,10.59
2019-05-09T05:40:00.076Z,10.71
2019-05-09T05:42:28.974Z,10.59
2019-05-09T05:44:58.388Z,10.51
2019-05-09T05:47:48.478Z,10.50
2019-05-09T05:50:17.629Z,10.63
2019-05-09T05:52:47.597Z,10.46
2019-05-09T05:55:18.229Z,10.47
2019-05-09T05:57:47.937Z,10.40
2019-05-09T06:00:19.767Z,10.48
2019-05-09T06:02:48.690Z,10.54
2019-05-09T06:05:18.737Z,10.54
2019-05-09T06:07:48.308Z,10.62
2019-05-09T06:10:18.644Z,10.73
2019-05-09T06:12:48.277Z,10.83
2019-05-09T06:15:18.252Z,10.79
2019-05-09T06:17:48.436Z,10.73
2019-05-09T06:20:17.998Z,10.86
2019-05-09T06:22:47.821Z,10.77
2019-05-09T06:25:20.646Z,10.76
2019-05-09T06:27:48.407Z,10.85
2019-05-09T06:30:28.113Z,10.87
2019-05-09T06:32:58.094Z,10.74
2019-05-09T06:35:28.261Z,10.84
2019-05-09T06:37:58.752Z,10.73
2019-05-09T06:40:29.037Z,10.78
2019-05-09T06:42:59.333Z,10.78
2019-05-09T06:45:45.163Z,10.78
2019-05-09T06:48:17.860Z,10.94
2019-05-09T06:50:48.380Z,10.93
2019-05-09T06:53:18.232Z,10.89
2019-05-09T06:55:47.674Z,11.01
2019-05-09T06:58:32.010Z,11.11
2019-05-09T07:01:18.973Z,11.04
2019-05-09T07:03:49.632Z,11.03
2019-05-09T07:06:29.589Z,11.12
2019-05-09T07:09:20.783Z,11.16
2019-05-09T07:11:49.856Z,11.11
2019-05-09T07:14:32.698Z,11.28
2019-05-09T07:16:59.818Z,11.16
2019-05-09T07:19:29.072Z,11.20
2019-05-09T07:22:05.134Z,11.18
2019-05-09T07:24:58.081Z,11.12
2019-05-09T07:27:25.313Z,11.23
2019-05-09T07:29:58.109Z,11.46
2019-05-09T07:32:27.970Z,11.60
2019-05-09T07:35:00.842Z,11.47
2019-05-09T07:37:30.091Z,11.48
2019-05-09T07:39:59.269Z,11.32
2019-05-09T07:42:28.583Z,11.14
2019-05-09T07:44:59.134Z,11.20
2019-05-09T07:47:28.417Z,11.15
2019-05-09T07:49:58.548Z,11.19
2019-05-09T07:52:28.484Z,11.13
2019-05-09T07:54:58.103Z,11.18
2019-05-09T07:57:28.558Z,11.09
2019-05-09T07:59:58.567Z,11.17
2019-05-09T08:02:28.355Z,11.12
2019-05-09T08:04:58.269Z,11.30
2019-05-09T08:07:29.087Z,11.15
2019-05-09T08:09:58.385Z,11.23
2019-05-09T08:12:28.443Z,11.20
2019-05-09T08:15:10.375Z,11.23
2019-05-09T08:17:28.831Z,11.33
2019-05-09T08:19:58.446Z,11.60
2019-05-09T08:22:32.342Z,11.60
2019-05-09T08:24:58.725Z,12.11
2019-05-09T08:27:30.040Z,11.92
2019-05-09T08:29:58.876Z,12.17
2019-05-09T08:32:28.733Z,12.39
2019-05-09T08:34:59.009Z,12.01
2019-05-09T08:37:28.498Z,11.55
2019-05-09T08:39:57.976Z,11.59
2019-05-09T08:42:29.333Z,11.76
2019-05-09T08:44:59.273Z,12.25
2019-05-09T08:47:28.355Z,12.19
2019-05-09T08:50:13.908Z,12.41
2019-05-09T08:52:42.967Z,12.37
2019-05-09T08:55:11.893Z,12.69
2019-05-09T08:57:41.367Z,12.83
2019-05-09T09:00:11.007Z,12.81
2019-05-09T09:02:40.137Z,12.47
2019-05-09T09:05:10.322Z,12.68
2019-05-09T09:07:39.363Z,12.41
2019-05-09T09:10:08.992Z,13.00
2019-05-09T09:12:38.587Z,12.72
2019-05-09T09:15:13.352Z,12.88
2019-05-09T09:17:43.012Z,13.13
2019-05-09T09:20:12.461Z,13.00
2019-05-09T09:22:41.625Z,12.80
2019-05-09T09:25:10.893Z,12.49
2019-05-09T09:27:41.073Z,12.66
2019-05-09T09:30:20.291Z,12.70
2019-05-09T09:32:41.958Z,12.69
2019-05-09T09:35:12.129Z,13.23
2019-05-09T09:37:48.370Z,12.81
2019-05-09T09:40:13.248Z,13.22
2019-05-09T09:42:42.366Z,13.45
2019-05-09T09:45:11.830Z,13.94
2019-05-09T09:47:41.125Z,13.96
2019-05-09T09:50:11.297Z,14.54
2019-05-09T09:52:40.314Z,14.54
2019-05-09T09:55:10.539Z,14.24
2019-05-09T09:57:40.304Z,14.64
2019-05-09T10:00:38.235Z,14.98
2019-05-09T10:03:08.015Z,14.19
2019-05-09T10:08:23.965Z,13.96
2019-05-09T10:10:53.078Z,14.39
2019-05-09T10:13:22.222Z,13.51
2019-05-09T10:16:01.969Z,13.51
2019-05-09T10:18:48.647Z,13.68
2019-05-09T10:21:21.511Z,14.48
2019-05-09T10:23:50.532Z,13.83
2019-05-09T10:26:19.599Z,14.16
2019-05-09T10:28:48.784Z,14.72
2019-05-09T10:31:18.192Z,14.49
2019-05-09T10:33:48.252Z,14.35
2019-05-09T10:36:18.532Z,14.13
2019-05-09T10:38:47.957Z,14.25
2019-05-09T10:41:18.004Z,14.36
2019-05-09T10:43:54.022Z,14.38
2019-05-09T10:46:55.928Z,14.93
2019-05-09T10:49:16.676Z,14.29
2019-05-09T10:51:45.786Z,14.74
2019-05-09T10:54:14.978Z,14.63
2019-05-09T10:56:43.982Z,14.63
2019-05-09T10:59:13.707Z,14.66
2019-05-09T11:01:42.781Z,15.12
2019-05-09T11:04:11.882Z,14.83
2019-05-09T11:06:41.114Z,15.40
2019-05-09T11:09:11.105Z,15.56
2019-05-09T11:11:40.333Z,15.51
2019-05-09T11:14:09.438Z,15.86
2019-05-09T11:16:45.813Z,16.44
2019-05-09T11:19:10.129Z,16.43
2019-05-09T11:21:39.478Z,16.17
2019-05-09T11:24:09.190Z,16.17
2019-05-09T11:26:39.817Z,16.11
2019-05-09T11:29:09.235Z,16.20
2019-05-09T11:31:38.731Z,16.48
2019-05-09T11:34:08.944Z,16.27
2019-05-09T11:36:39.218Z,16.15
2019-05-09T11:39:10.660Z,16.68
2019-05-09T11:41:39.968Z,17.04
2019-05-09T11:44:08.977Z,17.44
2019-05-09T11:46:38.551Z,17.45
2019-05-09T11:49:08.471Z,16.68
2019-05-09T11:51:37.819Z,16.10
2019-05-09T11:54:09.148Z,16.46
2019-05-09T11:56:38.400Z,16.15
2019-05-09T11:59:08.063Z,15.69
2019-05-09T12:01:39.725Z,16.04
2019-05-09T12:04:08.704Z,15.58
2019-05-09T12:06:38.604Z,15.53
2019-05-09T12:09:08.909Z,15.68
2019-05-09T12:11:43.519Z,15.85
2019-05-09T12:14:09.788Z,16.16
2019-05-09T12:16:39.084Z,16.69
2019-05-09T12:19:07.949Z,16.37
2019-05-09T12:21:46.869Z,15.84
2019-05-09T12:24:09.215Z,15.46
2019-05-09T12:26:39.242Z,15.51
2019-05-09T12:29:08.786Z,15.49
2019-05-09T12:31:38.855Z,15.60
2019-05-09T12:34:09.128Z,15.63
2019-05-09T12:36:39.836Z,15.65
2019-05-09T12:39:09.747Z,16.60
2019-05-09T12:41:38.985Z,16.02
2019-05-09T12:44:09.019Z,16.43
2019-05-09T12:46:39.318Z,16.46
2019-05-09T12:49:09.133Z,15.95
2019-05-09T12:51:38.360Z,16.09
2019-05-09T12:54:08.734Z,15.97
2019-05-09T12:56:38.583Z,15.98
2019-05-09T12:59:09.189Z,15.98
2019-05-09T13:01:40.768Z,17.30
2019-05-09T13:04:30.253Z,17.86
2019-05-09T13:06:59.689Z,17.90
2019-05-09T13:09:28.821Z,16.81
2019-05-09T13:11:58.722Z,16.60
2019-05-09T13:14:28.603Z,16.48
2019-05-09T13:17:04.632Z,16.55
2019-05-09T13:19:38.285Z,16.60
2019-05-09T13:22:08.357Z,16.58
2019-05-09T13:24:37.982Z,16.58
2019-05-09T13:27:07.863Z,16.74
2019-05-09T13:29:38.130Z,16.65
2019-05-09T13:32:08.819Z,16.56
2019-05-09T13:34:39.894Z,16.33
2019-05-09T13:37:10.164Z,16.54
2019-05-09T13:39:41.161Z,16.51
2019-05-09T13:42:10.475Z,17.37
2019-05-09T13:44:41.576Z,17.07
2019-05-09T13:47:11.173Z,17.04
2019-05-09T13:49:41.133Z,16.53
2019-05-09T13:52:10.456Z,16.80
2019-05-09T13:54:39.489Z,16.94
2019-05-09T13:57:08.882Z,16.85
2019-05-09T13:59:38.023Z,16.77
2019-05-09T14:02:07.386Z,16.81
2019-05-09T14:04:39.878Z,16.65
2019-05-09T14:07:09.229Z,16.60
2019-05-09T14:09:39.232Z,16.46
2019-05-09T14:12:09.406Z,16.39
2019-05-09T14:14:43.524Z,16.40
2019-05-09T14:17:14.486Z,16.47
2019-05-09T14:19:46.869Z,16.32
2019-05-09T14:22:14.795Z,16.11
2019-05-09T14:24:43.846Z,16.26
2019-05-09T14:27:12.960Z,16.40
2019-05-09T14:29:42.075Z,16.36
2019-05-09T14:32:11.204Z,16.50
2019-05-09T14:34:42.757Z,16.68
2019-05-09T14:37:12.143Z,16.53
2019-05-09T14:39:54.985Z,16.42
2019-05-09T14:42:14.455Z,16.42
2019-05-09T14:44:44.007Z,16.28
2019-05-09T14:47:13.323Z,16.33
2019-05-09T14:49:44.685Z,16.37
2019-05-09T14:52:14.128Z,16.41
2019-05-09T14:54:43.628Z,16.50
2019-05-09T14:57:13.306Z,16.66
2019-05-09T14:59:43.165Z,16.84
2019-05-09T15:02:13.867Z,16.68
2019-05-09T15:04:43.059Z,16.71
2019-05-09T15:07:12.461Z,16.86
2019-05-09T15:09:41.916Z,16.69
2019-05-09T15:12:11.081Z,16.58
2019-05-09T15:14:40.731Z,16.57
2019-05-09T15:17:10.100Z,16.52
2019-05-09T15:19:39.537Z,17.55
2019-05-09T15:22:09.449Z,21.63
2019-05-09T15:24:38.981Z,21.09
2019-05-09T15:27:08.439Z,22.47
2019-05-09T15:29:39.106Z,21.43
2019-05-09T15:32:12.251Z,18.91
2019-05-09T15:34:40.314Z,18.72
2019-05-09T15:37:09.494Z,19.43
2019-05-09T15:39:38.836Z,18.84
2019-05-09T15:47:44.744Z,22.81
2019-05-09T15:50:20.075Z,22.12
2019-05-09T15:56:13.258Z,17.47
2019-05-09T15:58:42.087Z,16.50
2019-05-09T16:01:11.030Z,16.53
2019-05-09T16:03:40.557Z,16.35
2019-05-09T16:06:09.443Z,15.92
2019-05-09T16:08:38.312Z,15.91
2019-05-09T16:11:28.571Z,15.82
2019-05-09T16:13:57.610Z,15.96
2019-05-09T16:16:30.920Z,15.61
2019-05-09T16:22:49.333Z,15.63
2019-05-09T16:25:18.954Z,15.54
2019-05-09T16:27:48.488Z,15.37
2019-05-09T16:33:14.562Z,15.14
2019-05-09T16:35:43.557Z,15.01
2019-05-09T16:39:24.097Z,14.86
2019-05-09T16:42:05.302Z,14.79
2019-05-09T16:45:19.136Z,14.48
2019-05-09T16:51:37.918Z,14.47
2019-05-09T16:57:46.241Z,14.43
2019-05-09T17:00:30.394Z,14.53
2019-05-09T17:02:59.364Z,14.41
2019-05-09T17:05:28.579Z,14.61
2019-05-09T17:15:08.475Z,14.52
2019-05-09T17:30:42.187Z,14.34
2019-05-09T17:33:42.322Z,14.50
2019-05-09T17:36:06.851Z,14.60
2019-05-09T17:38:38.209Z,14.67
2019-05-09T17:41:28.415Z,14.68
2019-05-09T17:44:31.435Z,14.55
2019-05-09T17:47:48.789Z,14.53
2019-05-09T17:54:03.613Z,14.32
2019-05-09T17:56:32.626Z,14.18
2019-05-09T17:59:02.008Z,13.96
2019-05-09T18:01:31.342Z,13.84
2019-05-09T18:04:00.395Z,13.76
2019-05-09T18:06:29.518Z,13.64
2019-05-09T18:08:58.650Z,13.59
2019-05-09T18:11:27.525Z,13.48
2019-05-09T18:13:56.565Z,13.46
2019-05-09T18:16:28.516Z,13.43
2019-05-09T18:18:58.834Z,13.34
2019-05-09T18:21:46.526Z,13.25
2019-05-09T18:24:04.639Z,13.17
2019-05-09T18:26:33.717Z,13.16
2019-05-09T18:29:02.845Z,13.23
2019-05-09T18:31:54.995Z,13.20
2019-05-09T18:34:24.325Z,13.17
2019-05-09T18:36:53.408Z,13.15
2019-05-09T18:39:22.666Z,13.00
2019-05-09T18:41:51.569Z,12.97
2019-05-09T18:44:20.650Z,12.90
2019-05-09T18:46:49.687Z,12.89
2019-05-09T18:49:18.581Z,12.90
2019-05-09T18:52:02.426Z,12.78
2019-05-09T18:54:18.221Z,12.68
2019-05-09T18:56:57.388Z,12.58
2019-05-09T18:59:26.386Z,12.52
2019-05-09T19:01:55.708Z,12.56
2019-05-09T19:04:24.808Z,12.61
2019-05-09T19:06:54.243Z,12.62
2019-05-09T19:09:23.225Z,12.55
2019-05-09T19:11:52.129Z,12.61
2019-05-09T19:14:23.217Z,12.58
2019-05-09T19:17:10.386Z,12.49
2019-05-09T19:20:02.595Z,12.52
2019-05-09T19:22:31.728Z,12.51
2019-05-09T19:25:00.734Z,12.55
2019-05-09T19:27:29.755Z,12.50
2019-05-09T19:29:58.602Z,12.43
2019-05-09T19:32:27.755Z,12.44
2019-05-09T19:34:57.157Z,12.68
2019-05-09T19:37:26.440Z,12.68
2019-05-09T19:39:55.670Z,12.53
2019-05-09T19:42:24.614Z,12.65
2019-05-09T19:44:53.611Z,12.65
2019-05-09T19:47:22.427Z,12.58
2019-05-09T19:49:51.340Z,12.55
2019-05-09T19:52:20.255Z,12.39
2019-05-09T19:54:49.118Z,12.39
2019-05-09T19:57:17.988Z,12.24
2019-05-09T19:59:46.831Z,12.24
2019-05-09T20:02:15.821Z,12.29
2019-05-09T20:04:44.808Z,12.20
2019-05-09T20:07:14.172Z,12.18
2019-05-09T20:09:51.443Z,12.11
2019-05-09T20:12:45.338Z,11.94
2019-05-09T20:15:16.594Z,11.74
2019-05-09T20:17:45.490Z,11.74
2019-05-09T20:20:14.755Z,11.75
2019-05-09T20:22:52.396Z,11.60
2019-05-09T20:25:14.800Z,11.49
2019-05-09T20:27:43.799Z,11.58
2019-05-09T20:30:12.900Z,11.52
2019-05-09T20:32:41.934Z,11.49
2019-05-09T20:35:12.069Z,11.33
2019-05-09T20:37:41.117Z,11.27
2019-05-09T20:40:10.381Z,11.09
2019-05-09T20:42:39.720Z,11.01
2019-05-09T20:45:10.099Z,10.96
2019-05-09T20:47:41.117Z,10.92
2019-05-09T20:50:11.541Z,10.78
2019-05-09T20:52:40.783Z,10.76
2019-05-09T20:55:09.990Z,10.78
2019-05-09T20:57:39.186Z,10.68
2019-05-09T21:00:32.217Z,10.68
2019-05-09T21:02:48.870Z,10.66
2019-05-09T21:05:21.090Z,10.72
2019-05-09T21:07:50.162Z,10.71
2019-05-09T21:10:19.340Z,10.74
2019-05-09T21:12:48.568Z,10.80
2019-05-09T21:15:17.723Z,10.83
2019-05-09T21:17:46.925Z,10.79
2019-05-09T21:20:16.101Z,10.88
2019-05-09T21:22:45.188Z,10.86
2019-05-09T21:25:14.504Z,10.84
2019-05-09T21:27:43.584Z,10.82
2019-05-09T21:30:13.156Z,10.82
2019-05-09T21:32:42.227Z,10.91
2019-05-09T21:35:14.583Z,10.93
2019-05-09T21:37:43.511Z,10.87
2019-05-09T21:40:12.926Z,10.92
2019-05-09T21:42:41.821Z,10.88
2019-05-09T21:45:10.853Z,10.90
2019-05-09T21:47:39.758Z,10.92
2019-05-09T21:50:09.062Z,10.85
2019-05-09T21:52:37.921Z,10.79
2019-05-09T21:55:06.920Z,10.87
2019-05-09T21:57:36.062Z,10.83
2019-05-09T22:00:08.384Z,10.86
2019-05-09T22:02:37.408Z,10.83
2019-05-09T22:05:06.557Z,10.83
2019-05-09T22:07:35.553Z,10.84
2019-05-09T22:10:04.891Z,10.89
2019-05-09T22:12:33.768Z,10.84
2019-05-09T22:15:04.034Z,10.83
2019-05-09T22:17:37.965Z,10.85
2019-05-09T22:20:08.524Z,10.82
2019-05-09T22:22:37.503Z,10.84
2019-05-09T22:25:07.905Z,10.80
2019-05-09T22:27:37.205Z,10.88
2019-05-09T22:30:07.103Z,10.90
2019-05-09T22:32:36.121Z,10.82
2019-05-09T22:35:05.270Z,10.90
2019-05-09T22:37:34.228Z,10.85
2019-05-09T22:40:03.172Z,10.77
2019-05-09T22:42:32.092Z,10.76
2019-05-09T22:45:00.912Z,10.77
2019-05-09T22:47:29.803Z,10.66
2019-05-09T22:49:58.966Z,10.64
2019-05-09T22:52:27.942Z,10.60
2019-05-09T22:54:56.797Z,10.51
2019-05-09T22:57:25.710Z,10.52
2019-05-09T22:59:54.635Z,10.44
2019-05-09T23:02:23.621Z,10.32
2019-05-09T23:04:52.486Z,10.34
2019-05-09T23:07:21.457Z,10.36
2019-05-09T23:09:50.675Z,10.22
2019-05-09T23:12:19.571Z,10.11
2019-05-09T23:14:48.552Z,10.06
2019-05-09T23:17:17.352Z,10.04
2019-05-09T23:19:46.337Z,10.10
2019-05-09T23:22:15.516Z,10.04
2019-05-09T23:24:44.928Z,10.02
2019-05-09T23:27:16.327Z,10.04
2019-05-09T23:29:45.270Z,9.98
2019-05-09T23:32:33.682Z,9.95
2019-05-09T23:35:02.650Z,10.11
2019-05-09T23:37:31.642Z,10.13
2019-05-09T23:40:00.487Z,10.14
2019-05-09T23:42:29.552Z,10.00
2019-05-09T23:44:58.813Z,10.01
2019-05-09T23:47:27.690Z,10.02
2019-05-09T23:49:56.908Z,10.11
2019-05-09T23:52:26.342Z,10.16
2019-05-09T23:55:12.676Z,10.05
2019-05-09T23:57:59.020Z,10.13
